Astoria, OR

5:34 PM PDT on September 25, 2016 (GMT -0700)
The Slope of South | | Change Station

Elev 213 ft 46.18 °N, 123.84 °W | Updated 34 seconds ago

Clear
Clear
77.1 °F
Feels Like 79 °F
N
2.0
Wind Variable Wind from SSE

Today
High -- | Low -- °F
--% Chance of Precip.
Yesterday
High -- | Low -- °F
Precip. -- in
Pressure 30.24 in
Visibility 10.0 miles
Clouds Clear
Heat Index 79 °F
Dew Point 59 °F
Humidity 54%
Rainfall 0.00 in
Snow Depth Not available.
7:06 AM 7:05 PM
Waning Crescent, 23% visible
METAR KAST 252355Z AUTO 33008KT 10SM CLR 24/15 A3024 RMK AO2 SLP240 T02440150 10256 20200 56026
Pressure 30.24 in
Visibility 10.0 miles
Clouds Clear
Heat Index 79 °F
Dew Point 59 °F
Humidity 54%
Rainfall 0.00 in
Snow Depth Not available.
7:06 AM 7:05 PM
Waning Crescent, 23% visible
METAR KAST 252355Z AUTO 33008KT 10SM CLR 24/15 A3024 RMK AO2 SLP240 T02440150 10256 20200 56026

10-Day Weather Forecast

Almanac

Astronomy

Sep. 25, 2016 Rise Set
Actual Time
Civil Twilight
Nautical Twilight
Astronomical Twilight
Moon
Length of Visible Light
Length of Day
Tomorrow will be .
, % of the Moon is Illuminated

Today's Extremes

State Highs State Lows

Community

WunderPhotos

Upload Photos

1,941,796 photos uploaded!

WunderBlog® & News

Nearby

Air Quality

  Air Quality AQ Index Pollutant
Not available.

Snow Depth

Station Depth Elevation

Earthquake Activity

City Distance Mag. Time & Date
Minimum magnitude displayed is 2.5.

Coastal Water Temperatures

Place Temperature

Stations

Nearby Weather Stations

Station Location Temp. Windchill Dew Point Humidity Wind Precip. Elev Updated Type
                   

Watches & Warnings

There are currently no watches in effect.